Airfield :
LOGIN :

Register | Disclaimer

   EN    FR    IT 

 










Legend :    VFR   Marginal VFR   IFR   Intensive IFR   Very Intensive IFR
Visi :
Ceiling :
>= 8 km
>= 3000ft
5 to 8 km
1000 to 3000 ft
1500m to 5 km
500 to 1000 ft
800 to 1500m
200 to 500 ft
< 800m
< 200 ft
Symbols :   Thunderstorms  Fog  Heavy snow  Heavy precipitations  Wind > 20 kt
SIGMETs :     Misc.  Thunderstorms  Icing  Turbulence  Mountain Waves  Volcanic Ashes







- Airport Elevation : 364 ft
- IATA code : FRA


EDDF - Frankfurt Int.

CURRENT METAR :
  • 281236Z 24012G23KT 9999 SCT044 BKN250 22/11 Q1014 TEMPO 24015G25KT

EXPIRED METARs :
  • 281220Z 25017KT 9999 SCT044 BKN250 21/11 Q1014 TEMPO 24015G25KT
  • 281150Z 25013KT 9999 SCT040 SCT075 21/11 Q1014 TEMPO 24015G25KT
  • 281120Z 25013KT 9999 SCT040 SCT075 BKN180 21/12 Q1014 TEMPO 24015G25KT
  • 281050Z 23017KT 9999 SCT040 BKN180 21/11 Q1014 TEMPO 24015G25KT
  • 281020Z 25013KT 220V280 9999 BKN040 21/12 Q1014 TEMPO 24015G25KT
  • 280950Z 24013KT 9999 SCT035 BKN180 20/11 Q1014 TEMPO 24015G25KT

TAF TAF EDDF
Valid from the 28 at 06:00 until the 29 at 12:00 UTC


280500Z 2806/2912 23006KT CAVOK
BECMG 2807/2809 23012KT
TEMPO 2810/2816 24015G25KT
BECMG 2818/2820 19005KT
BECMG 2908/2911 22011KT
No reported NOTAMs for that airfield.



MET'MAP, your aeronautical weather chart ! - Copyright ORBIFLY December 2007 - Disclaimer

ORBIFLY MET'MAP TEAM :

Programming & Development : Alexandra Zaïnal
Concept & Development : Baudouin d'Aumeries
Co-Development & Prog : Marc-Olivier Méhu
Technical & hardware support : Manuel Goepfert

Contact : metmap@orbifly.com




SOURCES & CREDITS :

   NOAA